createdAt,value
2018-03-08T00:00:25.962Z,98886.32
2018-03-08T00:02:53.451Z,98891.78
2018-03-08T00:05:20.942Z,98891.77
2018-03-08T00:07:48.481Z,98890.52
2018-03-08T00:10:16.013Z,98893.88
2018-03-08T00:12:43.517Z,98892.18
2018-03-08T00:15:11.053Z,98895.57
2018-03-08T00:17:38.605Z,98896.41
2018-03-08T00:20:06.213Z,98889.65
2018-03-08T00:22:33.725Z,98895.14
2018-03-08T00:25:01.228Z,98894.20
2018-03-08T00:27:29.703Z,98896.28
2018-03-08T00:29:57.216Z,98897.02
2018-03-08T00:32:24.821Z,98896.53
2018-03-08T00:34:52.376Z,98896.87
2018-03-08T00:37:19.914Z,98899.38
2018-03-08T00:39:47.434Z,98898.02
2018-03-08T00:42:14.952Z,98906.88
2018-03-08T00:44:42.519Z,98904.62
2018-03-08T00:47:10.120Z,98904.52
2018-03-08T00:49:37.648Z,98903.20
2018-03-08T00:52:05.189Z,98905.25
2018-03-08T00:54:32.705Z,98907.72
2018-03-08T00:57:00.274Z,98906.45
2018-03-08T00:59:27.870Z,98906.33
2018-03-08T01:01:55.393Z,98908.38
2018-03-08T01:04:22.940Z,98913.41
2018-03-08T01:15:21.188Z,98912.61
2018-03-08T01:17:48.733Z,98907.48
2018-03-08T01:20:16.238Z,98913.75
2018-03-08T01:22:43.839Z,98913.67
2018-03-08T01:25:11.385Z,98919.87
2018-03-08T01:27:38.903Z,98911.77
2018-03-08T01:30:06.566Z,98915.50
2018-03-08T01:32:34.097Z,98915.00
2018-03-08T01:35:01.620Z,98919.16
2018-03-08T01:37:29.219Z,98921.73
2018-03-08T01:39:56.730Z,98915.64
2018-03-08T01:42:24.587Z,98919.36
2018-03-08T01:44:52.113Z,98920.20
2018-03-08T01:47:19.607Z,98920.09
2018-03-08T01:49:47.124Z,98920.42
2018-03-08T01:52:14.627Z,98915.69
2018-03-08T01:54:42.151Z,98917.45
2018-03-08T01:57:09.731Z,98914.45
2018-03-08T01:59:37.234Z,98917.72
2018-03-08T02:02:05.101Z,98915.06
2018-03-08T02:04:32.595Z,98918.43
2018-03-08T02:07:00.291Z,98920.87
2018-03-08T02:09:27.800Z,98921.23
2018-03-08T02:11:55.287Z,98918.30
2018-03-08T02:14:22.823Z,98923.80
2018-03-08T02:16:50.324Z,98920.94
2018-03-08T02:19:17.818Z,98926.41
2018-03-08T02:21:45.345Z,98929.72
2018-03-08T02:24:12.923Z,98927.28
2018-03-08T02:26:40.509Z,98926.67
2018-03-08T02:29:08.118Z,98924.53
2018-03-08T02:31:35.632Z,98923.84
2018-03-08T02:34:03.180Z,98934.36
2018-03-08T02:36:30.759Z,98932.16
2018-03-08T02:38:58.276Z,98936.81
2018-03-08T02:41:25.812Z,98938.19
2018-03-08T02:43:53.337Z,98941.08
2018-03-08T02:46:20.954Z,98940.27
2018-03-08T02:48:48.504Z,98942.86
2018-03-08T02:51:16.000Z,98946.16
2018-03-08T02:53:43.526Z,98939.59
2018-03-08T02:56:11.080Z,98950.45
2018-03-08T02:58:38.603Z,98948.00
2018-03-08T03:01:06.339Z,98945.42
2018-03-08T03:03:33.885Z,98948.80
2018-03-08T03:06:01.397Z,98952.59
2018-03-08T03:08:28.896Z,98950.08
2018-03-08T03:10:56.408Z,98951.67
2018-03-08T03:13:23.913Z,98954.77
2018-03-08T03:15:51.426Z,98953.45
2018-03-08T03:18:18.992Z,98951.33
2018-03-08T03:20:46.535Z,98956.98
2018-03-08T03:23:14.108Z,98958.70
2018-03-08T03:25:41.613Z,98955.75
2018-03-08T03:28:09.184Z,98956.58
2018-03-08T03:30:36.694Z,98959.56
2018-03-08T03:33:04.269Z,98959.56
2018-03-08T03:35:31.893Z,98965.53
2018-03-08T03:37:59.434Z,98962.94
2018-03-08T03:40:26.909Z,98968.84
2018-03-08T03:42:54.497Z,98963.80
2018-03-08T03:45:22.015Z,98969.70
2018-03-08T03:47:49.529Z,98970.55
2018-03-08T03:50:17.023Z,98974.36
2018-03-08T03:52:44.518Z,98975.72
2018-03-08T03:55:12.010Z,98977.77
2018-03-08T03:57:39.525Z,98978.73
2018-03-08T04:00:07.144Z,98978.23
2018-03-08T04:02:34.700Z,98977.74
2018-03-08T04:05:02.230Z,98978.20
2018-03-08T04:07:29.738Z,98982.91
2018-03-08T04:09:57.224Z,98980.80
2018-03-08T04:12:24.717Z,98985.53
2018-03-08T04:14:52.190Z,98993.50
2018-03-08T04:17:19.690Z,98988.89
2018-03-08T04:19:47.255Z,98994.91
2018-03-08T04:22:14.833Z,98998.27
2018-03-08T04:24:42.342Z,99000.39
2018-03-08T04:27:09.900Z,98997.83
2018-03-08T04:29:37.524Z,99007.52
2018-03-08T04:32:05.046Z,99012.56
2018-03-08T04:34:32.624Z,99016.83
2018-03-08T04:37:00.219Z,99013.94
2018-03-08T04:39:27.782Z,99018.51
2018-03-08T04:41:55.304Z,99024.80
2018-03-08T04:44:22.849Z,99026.14
2018-03-08T04:46:50.359Z,99034.55
2018-03-08T04:49:17.886Z,99035.46
2018-03-08T04:51:45.381Z,99032.19
2018-03-08T04:54:12.893Z,99037.68
2018-03-08T04:56:40.386Z,99040.98
2018-03-08T04:59:07.926Z,99043.75
2018-03-08T05:01:35.432Z,99052.72
2018-03-08T05:04:02.991Z,99052.89
2018-03-08T05:06:30.484Z,99051.70
2018-03-08T05:08:57.996Z,99057.78
2018-03-08T05:11:25.689Z,99062.93
2018-03-08T05:13:53.228Z,99062.58
2018-03-08T05:16:20.751Z,99075.80
2018-03-08T05:18:48.265Z,99077.19
2018-03-08T05:21:15.907Z,99080.16
2018-03-08T05:23:43.517Z,99086.04
2018-03-08T05:26:11.056Z,99079.30
2018-03-08T05:28:38.633Z,99089.45
2018-03-08T05:31:06.389Z,99090.70
2018-03-08T05:33:33.948Z,99093.27
2018-03-08T05:36:01.518Z,99098.30
2018-03-08T05:38:29.022Z,99104.98
2018-03-08T05:40:56.522Z,99103.77
2018-03-08T05:43:24.053Z,99120.14
2018-03-08T05:45:51.568Z,99126.44
2018-03-08T05:48:19.073Z,99129.48
2018-03-08T05:50:46.565Z,99145.61
2018-03-08T05:53:14.088Z,99145.04
2018-03-08T05:55:41.629Z,99143.61
2018-03-08T05:58:09.163Z,99158.03
2018-03-08T06:00:36.671Z,99151.92
2018-03-08T06:03:04.201Z,99157.45
2018-03-08T06:05:31.741Z,99167.14
2018-03-08T06:08:00.332Z,99163.03
2018-03-08T06:10:27.965Z,99172.71
2018-03-08T06:12:55.488Z,99170.63
2018-03-08T06:15:23.092Z,99172.68
2018-03-08T06:17:50.590Z,99173.53
2018-03-08T06:20:18.220Z,99175.23
2018-03-08T06:22:45.707Z,99174.80
2018-03-08T06:25:13.227Z,99172.59
2018-03-08T06:27:40.748Z,99174.23
2018-03-08T06:30:08.270Z,99172.50
2018-03-08T06:32:35.822Z,99179.23
2018-03-08T06:35:03.328Z,99175.42
2018-03-08T06:37:30.846Z,99185.05
2018-03-08T06:39:58.367Z,99185.86
2018-03-08T06:42:25.927Z,99187.09
2018-03-08T06:44:53.500Z,99196.75
2018-03-08T06:47:21.016Z,99189.53
2018-03-08T06:49:49.049Z,99197.94
2018-03-08T06:52:16.882Z,99190.30
2018-03-08T06:54:44.579Z,99195.73
2018-03-08T06:57:12.070Z,99197.78
2018-03-08T06:59:39.625Z,99199.02
2018-03-08T07:02:07.181Z,99205.34
2018-03-08T07:04:34.784Z,99202.31
2018-03-08T07:07:02.344Z,99204.38
2018-03-08T07:09:29.904Z,99212.31
2018-03-08T07:11:57.385Z,99214.38
2018-03-08T07:14:24.968Z,99215.63
2018-03-08T07:16:52.487Z,99219.86
2018-03-08T07:19:20.051Z,99226.09
2018-03-08T07:21:47.682Z,99217.60
2018-03-08T07:24:15.286Z,99221.30
2018-03-08T07:26:42.849Z,99217.03
2018-03-08T07:29:10.369Z,99222.83
2018-03-08T07:31:37.930Z,99231.16
2018-03-08T07:34:05.455Z,99230.30
2018-03-08T07:36:32.986Z,99234.80
2018-03-08T07:39:00.576Z,99234.30
2018-03-08T07:41:28.110Z,99236.13
2018-03-08T07:43:55.620Z,99232.94
2018-03-08T07:46:23.122Z,99238.41
2018-03-08T07:48:50.658Z,99233.44
2018-03-08T07:51:18.164Z,99235.73
2018-03-08T07:53:45.681Z,99239.56
2018-03-08T07:56:13.162Z,99245.58
2018-03-08T07:58:40.706Z,99245.30
2018-03-08T08:01:08.259Z,99251.41
2018-03-08T08:03:35.774Z,99256.63
2018-03-08T08:06:15.074Z,99256.70
2018-03-08T08:09:07.203Z,99262.47
2018-03-08T08:11:34.706Z,99268.93
2018-03-08T08:14:02.232Z,99268.20
2018-03-08T08:16:29.724Z,99267.07
2018-03-08T08:18:57.212Z,99267.95
2018-03-08T08:21:24.743Z,99270.80
2018-03-08T08:23:52.234Z,99274.41
2018-03-08T08:26:19.729Z,99266.16
2018-03-08T08:28:48.396Z,99267.32
2018-03-08T08:31:16.060Z,99267.30
2018-03-08T08:33:43.581Z,99270.63
2018-03-08T08:36:11.055Z,99265.93
2018-03-08T08:38:38.526Z,99268.83
2018-03-08T08:41:06.026Z,99268.75
2018-03-08T08:43:33.531Z,99284.34
2018-03-08T08:46:01.067Z,99282.28
2018-03-08T08:48:28.574Z,99275.55
2018-03-08T08:50:56.087Z,99282.09
2018-03-08T08:53:23.566Z,99287.77
2018-03-08T08:55:51.079Z,99290.21
2018-03-08T08:58:18.602Z,99298.14
2018-03-08T09:00:46.176Z,99296.98
2018-03-08T09:03:13.699Z,99297.02
2018-03-08T09:05:41.231Z,99294.38
2018-03-08T09:08:08.794Z,99303.27
2018-03-08T09:10:36.284Z,99306.71
2018-03-08T09:13:03.815Z,99301.02
2018-03-08T09:15:31.319Z,99309.71
2018-03-08T09:17:58.837Z,99315.45
2018-03-08T09:20:26.329Z,99319.45
2018-03-08T09:22:53.843Z,99310.66
2018-03-08T09:25:21.346Z,99315.02
2018-03-08T09:27:48.936Z,99313.25
2018-03-08T09:30:16.438Z,99312.12
2018-03-08T09:32:43.914Z,99303.81
2018-03-08T09:35:11.410Z,99305.17
2018-03-08T09:37:38.932Z,99305.63
2018-03-08T09:40:06.596Z,99300.09
2018-03-08T09:42:34.079Z,99308.59
2018-03-08T09:45:01.584Z,99305.70
2018-03-08T09:47:29.073Z,99292.39
2018-03-08T09:49:56.583Z,99300.68
2018-03-08T09:52:24.090Z,99302.17
2018-03-08T09:54:51.578Z,99304.86
2018-03-08T09:57:19.097Z,99304.97
2018-03-08T09:59:46.619Z,99308.83
2018-03-08T10:02:14.143Z,99310.90
2018-03-08T10:04:41.650Z,99303.50
2018-03-08T10:07:09.173Z,99310.63
2018-03-08T10:09:36.668Z,99312.00
2018-03-08T10:12:04.182Z,99307.31
2018-03-08T10:14:31.710Z,99309.41
2018-03-08T10:16:59.232Z,99308.52
2018-03-08T10:19:26.809Z,99313.69
2018-03-08T10:21:54.313Z,99314.63
2018-03-08T10:24:21.808Z,99318.89
2018-03-08T10:26:49.307Z,99313.73
2018-03-08T10:29:16.793Z,99322.56
2018-03-08T10:31:44.282Z,99314.87
2018-03-08T10:34:11.783Z,99314.69
2018-03-08T10:36:39.256Z,99316.30
2018-03-08T10:44:01.917Z,99313.00
2018-03-08T10:46:29.404Z,99306.33
2018-03-08T10:51:24.454Z,99311.84
2018-03-08T10:53:51.949Z,99310.76
2018-03-08T10:56:19.437Z,99310.11
2018-03-08T10:58:47.007Z,99306.66
2018-03-08T11:01:20.112Z,99310.17
2018-03-08T11:03:48.588Z,99299.47
2018-03-08T11:06:20.949Z,99302.41
2018-03-08T11:08:48.623Z,99293.28
2018-03-08T11:11:16.242Z,99300.59
2018-03-08T11:13:43.711Z,99291.54
2018-03-08T11:16:11.220Z,99295.48
2018-03-08T11:18:38.729Z,99286.05
2018-03-08T11:21:06.218Z,99292.83
2018-03-08T11:23:33.777Z,99291.89
2018-03-08T11:26:01.582Z,99287.61
2018-03-08T11:28:29.342Z,99285.42
2018-03-08T11:30:56.856Z,99288.23
2018-03-08T11:33:24.479Z,99287.07
2018-03-08T11:35:52.060Z,99282.59
2018-03-08T11:38:19.561Z,99278.13
2018-03-08T11:40:47.069Z,99278.54
2018-03-08T11:43:14.585Z,99269.87
2018-03-08T11:45:42.074Z,99271.94
2018-03-08T11:48:10.630Z,99261.63
2018-03-08T11:50:37.157Z,99268.73
2018-03-08T11:53:04.654Z,99262.20
2018-03-08T11:55:32.195Z,99267.16
2018-03-08T11:57:59.714Z,99266.28
2018-03-08T12:00:27.214Z,99258.70
2018-03-08T12:02:54.723Z,99256.41
2018-03-08T12:05:22.204Z,99254.28
2018-03-08T12:07:49.996Z,99252.27
2018-03-08T12:10:17.584Z,99249.64
2018-03-08T12:12:45.120Z,99250.22
2018-03-08T12:15:12.788Z,99251.62
2018-03-08T12:17:40.336Z,99253.91
2018-03-08T12:20:07.911Z,99247.60
2018-03-08T12:22:35.426Z,99244.33
2018-03-08T12:25:02.951Z,99244.04
2018-03-08T12:27:30.458Z,99242.98
2018-03-08T12:29:57.975Z,99243.30
2018-03-08T12:32:25.513Z,99242.81
2018-03-08T12:34:53.016Z,99240.06
2018-03-08T12:37:20.571Z,99239.56
2018-03-08T12:39:48.070Z,99237.20
2018-03-08T12:42:15.582Z,99231.84
2018-03-08T12:44:43.075Z,99225.50
2018-03-08T12:47:10.590Z,99229.92
2018-03-08T12:49:38.102Z,99231.30
2018-03-08T12:52:05.589Z,99234.73
2018-03-08T12:54:33.132Z,99228.28
2018-03-08T12:57:00.628Z,99222.60
2018-03-08T12:59:28.159Z,99220.52
2018-03-08T13:01:55.680Z,99221.30
2018-03-08T13:04:23.219Z,99216.52
2018-03-08T13:06:50.723Z,99206.38
2018-03-08T13:09:18.232Z,99212.38
2018-03-08T13:11:45.780Z,99211.55
2018-03-08T13:14:13.325Z,99210.64
2018-03-08T13:16:40.833Z,99210.70
2018-03-08T13:19:08.349Z,99212.22
2018-03-08T13:21:35.830Z,99205.20
2018-03-08T13:24:03.406Z,99208.53
2018-03-08T13:26:30.979Z,99217.39
2018-03-08T13:28:58.489Z,99207.00
2018-03-08T13:31:26.002Z,99217.56
2018-03-08T13:33:53.509Z,99207.50
2018-03-08T13:36:21.012Z,99210.39
2018-03-08T13:38:48.526Z,99207.42
2018-03-08T13:41:16.184Z,99198.89
2018-03-08T13:43:43.724Z,99208.58
2018-03-08T13:46:11.224Z,99205.45
2018-03-08T13:48:38.742Z,99213.52
2018-03-08T13:51:06.249Z,99196.79
2018-03-08T13:53:33.788Z,99195.66
2018-03-08T13:56:01.384Z,99195.02
2018-03-08T13:58:28.926Z,99188.66
2018-03-08T14:00:56.450Z,99186.06
2018-03-08T14:03:24.217Z,99184.09
2018-03-08T14:05:51.762Z,99172.27
2018-03-08T14:08:19.370Z,99170.28
2018-03-08T14:10:46.937Z,99168.22
2018-03-08T14:13:14.560Z,99163.08
2018-03-08T14:15:42.072Z,99166.12
2018-03-08T14:18:09.578Z,99153.92
2018-03-08T14:20:37.064Z,99164.48
2018-03-08T14:23:04.614Z,99151.78
2018-03-08T14:25:32.493Z,99152.85
2018-03-08T14:27:59.966Z,99152.52
2018-03-08T14:30:27.472Z,99149.92
2018-03-08T14:32:55.858Z,99137.84
2018-03-08T14:35:23.462Z,99139.63
2018-03-08T14:37:51.250Z,99146.47
2018-03-08T14:40:18.743Z,99144.36
2018-03-08T14:42:46.247Z,99136.45
2018-03-08T14:45:13.757Z,99125.91
2018-03-08T14:47:41.260Z,99122.80
2018-03-08T14:50:08.839Z,99133.33
2018-03-08T14:52:36.376Z,99115.57
2018-03-08T14:55:03.867Z,99119.32
2018-03-08T14:57:31.725Z,99112.06
2018-03-08T14:59:59.239Z,99111.61
2018-03-08T15:02:26.798Z,99117.75
2018-03-08T15:04:54.356Z,99113.30
2018-03-08T15:07:21.829Z,99111.16
2018-03-08T15:09:49.310Z,99107.64
2018-03-08T15:12:16.911Z,99103.86
2018-03-08T15:14:44.397Z,99112.10
2018-03-08T15:17:12.188Z,99109.88
2018-03-08T15:19:39.670Z,99105.97
2018-03-08T15:22:07.174Z,99101.98
2018-03-08T15:24:34.660Z,99096.38
2018-03-08T15:27:02.138Z,99090.48
2018-03-08T15:29:29.635Z,99095.72
2018-03-08T15:31:57.135Z,99100.33
2018-03-08T15:34:24.687Z,99089.05
2018-03-08T15:36:52.199Z,99086.95
2018-03-08T15:39:19.709Z,99090.98
2018-03-08T15:41:47.189Z,99089.83
2018-03-08T15:44:14.726Z,99081.42
2018-03-08T15:46:42.234Z,99085.70
2018-03-08T15:49:09.733Z,99080.48
2018-03-08T15:51:37.221Z,99076.11
2018-03-08T15:54:04.688Z,99070.51
2018-03-08T15:56:32.230Z,99074.27
2018-03-08T15:58:59.779Z,99068.94
2018-03-08T16:01:27.276Z,99066.02
2018-03-08T16:03:54.770Z,99063.67
2018-03-08T16:09:38.610Z,99060.23
2018-03-08T16:12:06.119Z,99057.61
2018-03-08T16:14:33.607Z,99050.08
2018-03-08T16:17:01.086Z,99059.80
2018-03-08T16:19:28.620Z,99051.47
2018-03-08T16:21:56.114Z,99051.34
2018-03-08T16:24:23.624Z,99061.72
2018-03-08T16:26:51.189Z,99064.42
2018-03-08T16:29:18.788Z,99062.54
2018-03-08T16:31:46.209Z,99056.28
2018-03-08T16:34:13.713Z,99061.75
2018-03-08T16:36:41.206Z,99063.44
2018-03-08T16:39:08.693Z,99063.13
2018-03-08T16:41:36.234Z,99057.48
2018-03-08T16:44:03.769Z,99057.38
2018-03-08T16:46:31.275Z,99058.23
2018-03-08T16:48:58.794Z,99054.11
2018-03-08T16:51:26.349Z,99068.14
2018-03-08T16:53:53.834Z,99062.70
2018-03-08T16:56:21.348Z,99051.86
2018-03-08T16:58:48.845Z,99056.67
2018-03-08T17:01:16.373Z,99063.69
2018-03-08T17:03:43.906Z,99054.24
2018-03-08T17:06:11.473Z,99051.50
2018-03-08T17:08:38.987Z,99047.98
2018-03-08T17:11:06.519Z,99048.84
2018-03-08T17:13:34.012Z,99051.88
2018-03-08T17:16:01.597Z,99048.13
2018-03-08T17:18:29.074Z,99042.50
2018-03-08T17:20:56.586Z,99037.97
2018-03-08T17:23:24.134Z,99027.73
2018-03-08T17:25:51.668Z,99022.25
2018-03-08T17:28:19.234Z,99026.46
2018-03-08T17:30:46.732Z,99028.32
2018-03-08T17:33:14.206Z,99028.33
2018-03-08T17:35:41.722Z,99024.50
2018-03-08T17:38:09.276Z,99019.19
2018-03-08T17:40:36.753Z,99030.77
2018-03-08T17:43:05.776Z,99027.19
2018-03-08T17:45:33.549Z,99024.13
2018-03-08T17:48:01.040Z,99028.59
2018-03-08T17:50:28.584Z,99030.39
2018-03-08T17:52:56.079Z,99024.70
2018-03-08T17:55:23.560Z,99029.42
2018-03-08T17:57:51.114Z,99024.27
2018-03-08T18:00:18.624Z,99024.33
2018-03-08T18:02:46.147Z,99027.70
2018-03-08T18:05:13.636Z,99019.66
2018-03-08T18:07:41.125Z,99018.79
2018-03-08T18:10:08.602Z,99020.67
2018-03-08T18:12:36.207Z,99010.15
2018-03-08T18:15:03.731Z,99015.34
2018-03-08T18:17:31.267Z,99015.64
2018-03-08T18:19:58.785Z,99030.47
2018-03-08T18:22:26.306Z,99025.95
2018-03-08T18:24:53.778Z,99010.02
2018-03-08T18:27:21.907Z,98999.62
2018-03-08T18:29:49.430Z,99004.10
2018-03-08T18:32:16.973Z,99009.16
2018-03-08T18:34:44.491Z,99014.00
2018-03-08T18:37:12.559Z,99014.31
2018-03-08T18:39:40.117Z,99009.67
2018-03-08T18:42:07.860Z,99017.55
2018-03-08T18:44:35.339Z,99032.44
2018-03-08T18:47:02.863Z,99028.91
2018-03-08T18:49:30.385Z,99030.42
2018-03-08T18:51:57.878Z,99024.62
2018-03-08T18:54:25.379Z,99017.08
2018-03-08T18:56:52.885Z,99014.69
2018-03-08T18:59:20.370Z,99001.14
2018-03-08T19:01:47.872Z,98980.86
2018-03-08T19:04:15.374Z,98955.02
2018-03-08T19:09:45.190Z,98972.02
2018-03-08T19:12:12.700Z,98988.08
2018-03-08T19:14:40.163Z,98993.10
2018-03-08T19:17:07.695Z,99008.33
2018-03-08T19:19:35.169Z,99010.02
2018-03-08T19:22:02.689Z,99007.69
2018-03-08T19:24:30.195Z,99013.66
2018-03-08T19:26:57.702Z,99035.81
2018-03-08T19:32:17.794Z,99032.91
2018-03-08T19:37:37.933Z,99041.73
2018-03-08T19:40:05.408Z,99036.52
2018-03-08T19:51:22.112Z,99049.08
2018-03-08T19:53:49.668Z,99044.09
2018-03-08T19:56:17.167Z,99043.25
2018-03-08T19:58:44.634Z,99046.04
2018-03-08T20:01:12.230Z,99049.63
2018-03-08T20:03:39.774Z,99053.98
2018-03-08T20:06:07.246Z,99058.33
2018-03-08T20:08:34.729Z,99060.78
2018-03-08T20:11:02.397Z,99063.04
2018-03-08T20:13:29.897Z,99070.99
2018-03-08T20:15:57.564Z,99090.12
2018-03-08T20:18:25.355Z,99077.73
2018-03-08T20:20:53.190Z,99075.66
2018-03-08T20:23:20.677Z,99089.53
2018-03-08T20:25:48.210Z,99081.45
2018-03-08T20:28:15.759Z,99087.38
2018-03-08T20:30:43.300Z,99088.34
2018-03-08T20:33:10.857Z,99096.50
2018-03-08T20:35:38.374Z,99101.23
2018-03-08T20:38:05.899Z,99099.91
2018-03-08T20:40:33.470Z,99098.45
2018-03-08T20:43:00.956Z,99108.14
2018-03-08T20:45:28.432Z,99101.14
2018-03-08T20:47:55.914Z,99110.05
2018-03-08T20:50:23.414Z,99115.59
2018-03-08T20:52:50.914Z,99123.84
2018-03-08T20:55:18.412Z,99117.13
2018-03-08T20:57:45.876Z,99120.22
2018-03-08T21:00:14.164Z,99114.92
2018-03-08T21:02:41.635Z,99106.12
2018-03-08T21:05:09.137Z,99112.45
2018-03-08T21:07:36.877Z,99113.35
2018-03-08T21:10:04.412Z,99118.27
2018-03-08T21:12:31.888Z,99111.16
2018-03-08T21:14:59.440Z,99115.05
2018-03-08T21:17:26.921Z,99121.95
2018-03-08T21:19:54.456Z,99131.52
2018-03-08T21:22:22.057Z,99127.39
2018-03-08T21:24:49.558Z,99128.68
2018-03-08T21:27:17.028Z,99135.38
2018-03-08T21:29:44.482Z,99135.78
2018-03-08T21:32:11.943Z,99135.73
2018-03-08T21:34:39.410Z,99140.70
2018-03-08T21:37:06.858Z,99142.58
2018-03-08T21:39:35.695Z,99156.45
2018-03-08T21:42:03.974Z,99165.86
2018-03-08T21:44:31.461Z,99171.81
2018-03-08T21:46:58.936Z,99165.89
2018-03-08T21:49:26.468Z,99158.50
2018-03-08T21:51:54.008Z,99157.59
2018-03-08T21:54:21.528Z,99147.06
2018-03-08T21:56:48.990Z,99142.75
2018-03-08T21:59:16.458Z,99153.84
2018-03-08T22:01:44.928Z,99156.94
2018-03-08T22:04:12.503Z,99154.50
2018-03-08T22:06:39.965Z,99154.69
2018-03-08T22:09:10.259Z,99150.09
2018-03-08T22:11:37.768Z,99152.80
2018-03-08T22:14:05.287Z,99152.48
2018-03-08T22:16:32.801Z,99154.55
2018-03-08T22:19:00.347Z,99162.63
2018-03-08T22:21:27.902Z,99163.88
2018-03-08T22:23:55.398Z,99165.63
2018-03-08T22:26:22.883Z,99170.20
2018-03-08T22:28:50.381Z,99168.06
2018-03-08T22:31:25.648Z,99163.02
2018-03-08T22:33:53.158Z,99177.74
2018-03-08T22:36:20.635Z,99177.81
2018-03-08T22:38:48.091Z,99182.77
2018-03-08T22:41:15.599Z,99181.98
2018-03-08T22:43:43.092Z,99178.22
2018-03-08T22:46:10.607Z,99176.42
2018-03-08T22:48:38.115Z,99186.50
2018-03-08T22:51:05.594Z,99181.39
2018-03-08T22:53:33.084Z,99189.78
2018-03-08T22:56:00.539Z,99189.45
2018-03-08T22:58:28.035Z,99183.84
2018-03-08T23:00:55.503Z,99191.42
2018-03-08T23:03:28.584Z,99189.31
2018-03-08T23:05:56.072Z,99192.16
2018-03-08T23:08:23.537Z,99183.77
2018-03-08T23:10:51.026Z,99185.39
2018-03-08T23:13:18.524Z,99187.02
2018-03-08T23:15:46.023Z,99188.22
2018-03-08T23:18:13.521Z,99192.02
2018-03-08T23:20:40.977Z,99194.67
2018-03-08T23:23:08.455Z,99193.34
2018-03-08T23:25:38.008Z,99205.25
2018-03-08T23:28:09.459Z,99201.55
2018-03-08T23:30:37.162Z,99206.94
2018-03-08T23:33:04.970Z,99209.95
2018-03-08T23:35:37.551Z,99209.86
2018-03-08T23:38:05.024Z,99207.86
2018-03-08T23:40:32.506Z,99206.92
2018-03-08T23:42:59.996Z,99207.78
2018-03-08T23:45:27.520Z,99216.64
2018-03-08T23:47:55.021Z,99221.27
2018-03-08T23:50:22.497Z,99228.11
2018-03-08T23:52:49.970Z,99225.59
2018-03-08T23:55:17.457Z,99221.02
2018-03-08T23:57:44.937Z,99224.39
